Time;durP1;ratioP1;P1;durP2;ratioP2;P2;SDS_P1;SDS_P2;PMS_P1;PMS_P2;Temp;Humidity;BMP_temperature;BMP_pressure;BME280_temperature;BME280_humidity;BME280_pressure;Samples;Min_cycle;Max_cycle;Signal;HPM_P1;HPM_P2
2023/03/29 00:01:50;;;;;;;6.90;3.45;;;;;;;;;;5009576;28;20536;-61
2023/03/29 00:04:18;;;;;;;4.88;2.70;;;;;;;;;;5008040;28;20069;-60
2023/03/29 00:06:47;;;;;;;8.65;2.75;;;;;;;;;;5012756;28;20046;-60
2023/03/29 00:09:14;;;;;;;4.13;2.72;;;;;;;;;;5011902;28;20046;-60
2023/03/29 00:11:40;;;;;;;5.57;2.75;;;;;;;;;;5004111;28;20459;-60
2023/03/29 00:14:06;;;;;;;3.70;2.22;;;;;;;;;;5010339;28;20042;-61
2023/03/29 00:16:32;;;;;;;4.43;2.53;;;;;;;;;;5012033;28;20062;-60
2023/03/29 00:18:59;;;;;;;4.97;2.67;;;;;;;;;;5008325;28;20523;-61
2023/03/29 00:21:25;;;;;;;4.03;2.42;;;;;;;;;;5028468;28;20046;-61
2023/03/29 00:23:51;;;;;;;6.43;2.05;;;;;;;;;;5012275;28;20042;-61
2023/03/29 00:26:17;;;;;;;8.35;2.80;;;;;;;;;;5011874;28;20046;-61
2023/03/29 00:28:43;;;;;;;4.82;2.42;;;;;;;;;;5011074;28;20042;-60
2023/03/29 00:31:14;;;;;;;6.43;2.97;;;;;;;;;;5011497;28;20564;-61
2023/03/29 00:33:40;;;;;;;3.72;2.25;;;;;;;;;;5010587;28;20046;-60
2023/03/29 00:36:07;;;;;;;4.55;2.40;;;;;;;;;;5012696;28;20477;-61
2023/03/29 00:38:33;;;;;;;7.53;3.47;;;;;;;;;;5010404;28;20053;-61
2023/03/29 00:40:59;;;;;;;3.85;2.53;;;;;;;;;;5014350;28;20045;-60
2023/03/29 00:43:25;;;;;;;4.07;2.33;;;;;;;;;;5011662;28;20433;-60
2023/03/29 00:45:52;;;;;;;8.10;3.47;;;;;;;;;;5010527;28;20052;-60
2023/03/29 00:48:21;;;;;;;5.80;2.72;;;;;;;;;;5012369;28;20128;-61
2023/03/29 00:50:53;;;;;;;5.07;2.30;;;;;;;;;;5026715;28;20048;-60
2023/03/29 00:53:42;;;;;;;5.68;3.33;;;;;;;;;;5013370;28;22272;-61
2023/03/29 00:56:13;;;;;;;4.88;2.50;;;;;;;;;;5012027;28;20048;-61
2023/03/29 00:58:46;;;;;;;6.28;2.40;;;;;;;;;;5010992;28;20147;-61
2023/03/29 01:01:18;;;;;;;4.50;2.58;;;;;;;;;;5009154;28;20049;-61
2023/03/29 01:03:48;;;;;;;5.65;2.83;;;;;;;;;;5012618;28;20038;-60
2023/03/29 01:06:15;;;;;;;4.63;3.13;;;;;;;;;;5008123;28;20156;-60
2023/03/29 01:08:47;;;;;;;5.03;2.20;;;;;;;;;;5011346;28;20046;-60
2023/03/29 01:11:22;;;;;;;5.18;2.58;;;;;;;;;;5008052;28;20050;-61
2023/03/29 01:14:14;;;;;;;8.88;2.70;;;;;;;;;;5013642;28;20037;-61
2023/03/29 01:16:41;;;;;;;5.10;2.78;;;;;;;;;;5003786;28;20057;-62
2023/03/29 01:19:08;;;;;;;4.90;3.00;;;;;;;;;;5010149;28;20057;-60
2023/03/29 01:21:44;;;;;;;7.20;2.95;;;;;;;;;;5010152;28;20042;-61
2023/03/29 01:24:16;;;;;;;3.33;2.45;;;;;;;;;;5010838;28;20045;-61
2023/03/29 01:26:49;;;;;;;4.97;2.53;;;;;;;;;;5008425;28;20046;-61
2023/03/29 01:29:20;;;;;;;3.92;2.60;;;;;;;;;;5010444;28;20045;-60
2023/03/29 01:31:51;;;;;;;4.07;2.50;;;;;;;;;;5008995;28;20050;-60
2023/03/29 01:34:26;;;;;;;7.75;3.40;;;;;;;;;;5011854;28;20121;-60
2023/03/29 01:36:57;;;;;;;5.70;2.60;;;;;;;;;;5006550;28;20076;-60
2023/03/29 01:39:23;;;;;;;4.82;2.63;;;;;;;;;;5010918;28;20078;-60
2023/03/29 01:41:59;;;;;;;5.50;2.25;;;;;;;;;;5010136;28;20045;-60
2023/03/29 01:44:25;;;;;;;6.75;2.72;;;;;;;;;;5011418;28;20157;-60
2023/03/29 01:46:54;;;;;;;3.85;2.50;;;;;;;;;;5007550;28;20049;-60
2023/03/29 01:49:41;;;;;;;5.80;2.35;;;;;;;;;;5010956;28;20119;-60
2023/03/29 01:52:24;;;;;;;5.88;2.83;;;;;;;;;;5008809;28;20100;-60
2023/03/29 01:54:58;;;;;;;7.70;2.95;;;;;;;;;;5007205;28;20030;-60
2023/03/29 01:57:24;;;;;;;4.75;2.50;;;;;;;;;;5010058;28;20233;-60
2023/03/29 01:59:52;;;;;;;5.22;2.85;;;;;;;;;;5013254;28;20069;-60
2023/03/29 02:02:19;;;;;;;5.47;2.95;;;;;;;;;;5009853;28;20624;-60
2023/03/29 02:04:51;;;;;;;4.35;2.78;;;;;;;;;;5010913;28;20042;-60
2023/03/29 02:07:18;;;;;;;5.95;2.95;;;;;;;;;;5009082;28;20137;-60
2023/03/29 02:09:45;;;;;;;7.88;2.80;;;;;;;;;;5026390;28;20053;-60
2023/03/29 02:12:13;;;;;;;8.32;2.90;;;;;;;;;;5010418;28;21030;-60
2023/03/29 02:14:39;;;;;;;5.90;2.40;;;;;;;;;;5012473;28;20041;-60
2023/03/29 02:17:24;;;;;;;4.15;2.72;;;;;;;;;;5009523;28;20124;-60
2023/03/29 02:19:53;;;;;;;7.13;3.40;;;;;;;;;;5012331;28;20532;-60
2023/03/29 02:22:25;;;;;;;5.70;3.03;;;;;;;;;;5008291;28;20038;-60
2023/03/29 02:24:55;;;;;;;6.22;2.88;;;;;;;;;;5010808;28;20124;-60
2023/03/29 02:27:21;;;;;;;4.60;2.38;;;;;;;;;;5008623;28;20049;-60
2023/03/29 02:29:47;;;;;;;7.47;3.13;;;;;;;;;;5009301;28;20056;-60
2023/03/29 02:32:27;;;;;;;5.40;2.58;;;;;;;;;;5010699;28;20053;-60
2023/03/29 02:34:57;;;;;;;5.57;4.07;;;;;;;;;;5010982;28;20507;-60
2023/03/29 02:37:25;;;;;;;6.35;2.85;;;;;;;;;;5011423;28;20068;-60
2023/03/29 02:39:52;;;;;;;3.63;2.35;;;;;;;;;;5011321;28;20524;-60
2023/03/29 02:42:19;;;;;;;7.95;3.00;;;;;;;;;;5008490;28;20042;-60
2023/03/29 02:44:46;;;;;;;5.20;2.28;;;;;;;;;;5008649;28;20038;-60
2023/03/29 02:47:16;;;;;;;4.85;2.78;;;;;;;;;;5008952;28;20092;-60
2023/03/29 02:49:43;;;;;;;3.90;2.60;;;;;;;;;;5007492;28;20050;-60
2023/03/29 02:52:11;;;;;;;8.32;2.60;;;;;;;;;;5010649;28;20066;-60
2023/03/29 02:54:41;;;;;;;9.75;3.55;;;;;;;;;;5025712;28;20034;-61
2023/03/29 02:57:09;;;;;;;3.80;2.50;;;;;;;;;;5026326;28;20049;-60
2023/03/29 02:59:37;;;;;;;6.15;2.67;;;;;;;;;;5010112;28;20636;-60
2023/03/29 03:02:04;;;;;;;7.53;3.05;;;;;;;;;;5006599;28;20053;-61
2023/03/29 03:04:30;;;;;;;5.80;2.97;;;;;;;;;;5011589;28;20042;-61
2023/03/29 03:06:56;;;;;;;8.05;3.65;;;;;;;;;;5010927;28;20133;-60
2023/03/29 03:09:23;;;;;;;7.70;2.95;;;;;;;;;;5012869;28;20081;-61
2023/03/29 03:11:49;;;;;;;3.90;2.55;;;;;;;;;;5011097;28;20073;-61
2023/03/29 03:14:15;;;;;;;6.18;2.63;;;;;;;;;;5014792;28;20038;-60
2023/03/29 03:16:41;;;;;;;6.05;2.63;;;;;;;;;;5013467;28;20069;-61
2023/03/29 03:19:09;;;;;;;8.70;3.67;;;;;;;;;;5013445;28;20046;-60
2023/03/29 03:21:37;;;;;;;6.90;3.28;;;;;;;;;;5009940;28;20584;-61
2023/03/29 03:24:04;;;;;;;4.85;2.53;;;;;;;;;;5012139;28;20041;-61
2023/03/29 03:26:30;;;;;;;5.43;2.90;;;;;;;;;;5012800;28;20123;-61
2023/03/29 03:28:57;;;;;;;5.22;2.08;;;;;;;;;;5015905;28;20046;-61
2023/03/29 03:31:23;;;;;;;4.03;2.35;;;;;;;;;;5011254;28;20121;-61
2023/03/29 03:33:49;;;;;;;5.80;3.03;;;;;;;;;;5015467;28;20079;-60
2023/03/29 03:36:15;;;;;;;5.22;2.53;;;;;;;;;;5012614;28;20065;-60
2023/03/29 03:38:42;;;;;;;7.97;2.45;;;;;;;;;;5013384;28;20046;-60
2023/03/29 03:41:08;;;;;;;9.63;3.03;;;;;;;;;;5013068;28;20548;-60
2023/03/29 03:43:35;;;;;;;6.70;3.60;;;;;;;;;;5010754;28;20034;-60
2023/03/29 03:46:01;;;;;;;7.15;3.53;;;;;;;;;;5010797;28;20042;-60
2023/03/29 03:48:27;;;;;;;5.05;2.63;;;;;;;;;;5012000;28;20077;-60
2023/03/29 03:50:57;;;;;;;4.80;2.50;;;;;;;;;;5010807;28;20046;-60
2023/03/29 03:53:25;;;;;;;5.97;2.58;;;;;;;;;;5006971;28;20344;-60
2023/03/29 03:55:57;;;;;;;6.45;2.88;;;;;;;;;;5010451;28;20041;-60
2023/03/29 03:58:23;;;;;;;6.05;4.20;;;;;;;;;;5013362;28;20116;-61
2023/03/29 04:00:50;;;;;;;8.10;3.22;;;;;;;;;;5005683;28;20082;-60
2023/03/29 04:03:16;;;;;;;10.02;3.13;;;;;;;;;;5008973;28;20046;-61
2023/03/29 04:05:44;;;;;;;3.95;2.50;;;;;;;;;;5013592;28;20049;-61
2023/03/29 04:08:11;;;;;;;4.15;2.47;;;;;;;;;;5011565;28;20034;-60
2023/03/29 04:10:37;;;;;;;8.57;2.88;;;;;;;;;;5010870;28;20096;-60
2023/03/29 04:13:04;;;;;;;9.95;4.60;;;;;;;;;;5009347;28;20046;-60
2023/03/29 04:15:30;;;;;;;5.65;2.85;;;;;;;;;;5009037;28;20601;-60
2023/03/29 04:17:57;;;;;;;7.95;3.35;;;;;;;;;;5010079;28;20580;-60
2023/03/29 04:20:23;;;;;;;4.93;3.30;;;;;;;;;;5011352;28;20040;-60
2023/03/29 04:22:50;;;;;;;4.05;2.58;;;;;;;;;;5012576;28;20045;-60
2023/03/29 04:25:16;;;;;;;6.30;2.85;;;;;;;;;;5013781;28;20154;-60
2023/03/29 04:27:42;;;;;;;6.00;2.88;;;;;;;;;;5011572;28;20224;-60
2023/03/29 04:30:09;;;;;;;8.57;2.70;;;;;;;;;;5011738;28;20050;-60
2023/03/29 04:32:36;;;;;;;5.20;2.58;;;;;;;;;;5010956;28;20042;-60
2023/03/29 04:35:03;;;;;;;5.32;3.30;;;;;;;;;;5013290;28;20050;-60
2023/03/29 04:37:30;;;;;;;12.82;2.97;;;;;;;;;;5012403;28;20104;-60
2023/03/29 04:39:59;;;;;;;6.75;2.60;;;;;;;;;;5012028;28;20049;-60
2023/03/29 04:42:25;;;;;;;8.82;3.08;;;;;;;;;;5012463;28;20037;-61
2023/03/29 04:44:52;;;;;;;7.88;3.03;;;;;;;;;;5012323;28;20061;-60
2023/03/29 04:47:18;;;;;;;8.48;4.30;;;;;;;;;;5009784;28;20046;-60
2023/03/29 04:49:45;;;;;;;8.40;2.97;;;;;;;;;;5011693;28;20041;-60
2023/03/29 04:52:11;;;;;;;5.43;3.00;;;;;;;;;;5008065;28;20044;-60
2023/03/29 04:54:37;;;;;;;6.75;3.00;;;;;;;;;;5010819;28;20046;-60
2023/03/29 04:57:07;;;;;;;9.75;4.30;;;;;;;;;;5011562;28;20046;-60
2023/03/29 04:59:33;;;;;;;9.05;3.95;;;;;;;;;;5009919;28;20104;-60
2023/03/29 05:02:01;;;;;;;4.35;3.30;;;;;;;;;;5006763;28;20049;-60
2023/03/29 05:04:28;;;;;;;5.72;3.42;;;;;;;;;;5010784;28;20045;-60
2023/03/29 05:06:54;;;;;;;4.43;3.53;;;;;;;;;;5028092;28;20046;-59
2023/03/29 05:09:21;;;;;;;11.25;4.07;;;;;;;;;;5007639;28;20077;-60
2023/03/29 05:11:47;;;;;;;5.97;2.88;;;;;;;;;;5012409;28;20669;-60
2023/03/29 05:14:13;;;;;;;9.60;4.45;;;;;;;;;;5041347;28;20075;-60
2023/03/29 05:16:39;;;;;;;8.07;3.13;;;;;;;;;;5013401;28;20144;-60
2023/03/29 05:19:06;;;;;;;9.82;4.13;;;;;;;;;;5011257;28;20037;-61
2023/03/29 05:21:32;;;;;;;6.82;4.25;;;;;;;;;;5010168;28;20666;-60
2023/03/29 05:23:58;;;;;;;5.05;2.60;;;;;;;;;;5008253;28;20045;-60
2023/03/29 05:26:26;;;;;;;4.20;3.13;;;;;;;;;;5010099;28;20080;-61
2023/03/29 05:28:52;;;;;;;5.38;3.00;;;;;;;;;;5011494;28;20045;-61
2023/03/29 05:31:19;;;;;;;8.07;3.78;;;;;;;;;;5007694;28;20073;-61
2023/03/29 05:33:47;;;;;;;11.20;3.33;;;;;;;;;;5012606;28;21106;-61
2023/03/29 05:36:13;;;;;;;8.27;3.70;;;;;;;;;;5008642;28;20631;-62
2023/03/29 05:38:40;;;;;;;5.78;2.97;;;;;;;;;;5001529;28;20496;-61
2023/03/29 05:41:06;;;;;;;7.15;3.30;;;;;;;;;;5004331;28;20049;-61
2023/03/29 05:43:33;;;;;;;12.93;3.92;;;;;;;;;;5028672;28;20567;-61
2023/03/29 05:45:59;;;;;;;8.13;4.00;;;;;;;;;;5020252;28;20128;-61
2023/03/29 05:48:26;;;;;;;5.45;2.65;;;;;;;;;;5010536;28;20657;-61
2023/03/29 05:50:53;;;;;;;8.25;3.58;;;;;;;;;;5008619;28;20077;-61
2023/03/29 05:53:22;;;;;;;9.18;3.65;;;;;;;;;;5009065;28;20413;-61
2023/03/29 05:55:48;;;;;;;5.43;3.50;;;;;;;;;;5007274;28;20398;-61
2023/03/29 05:58:16;;;;;;;6.28;3.20;;;;;;;;;;5007903;28;20050;-61
2023/03/29 06:00:43;;;;;;;7.18;3.92;;;;;;;;;;5011147;28;20092;-61
2023/03/29 06:03:15;;;;;;;7.72;3.08;;;;;;;;;;5010711;28;20052;-61
2023/03/29 06:05:41;;;;;;;9.25;3.88;;;;;;;;;;5011919;28;20046;-62
2023/03/29 06:08:08;;;;;;;12.70;3.25;;;;;;;;;;5010872;28;20041;-61
2023/03/29 06:10:36;;;;;;;8.30;3.15;;;;;;;;;;5009724;28;20042;-61
2023/03/29 06:13:02;;;;;;;5.82;2.58;;;;;;;;;;5011868;28;20389;-61
2023/03/29 06:15:28;;;;;;;6.35;3.08;;;;;;;;;;5005876;28;20066;-61
2023/03/29 06:17:54;;;;;;;10.27;3.58;;;;;;;;;;5004178;28;20113;-61
2023/03/29 06:20:20;;;;;;;8.70;3.03;;;;;;;;;;5004994;28;20537;-61
2023/03/29 06:22:47;;;;;;;6.43;3.85;;;;;;;;;;5010031;28;20544;-61
2023/03/29 06:25:14;;;;;;;5.30;3.05;;;;;;;;;;5009685;28;20045;-61
2023/03/29 06:27:40;;;;;;;6.38;3.05;;;;;;;;;;5008678;28;20176;-64
2023/03/29 06:30:06;;;;;;;7.80;3.55;;;;;;;;;;5007495;28;20041;-61
2023/03/29 06:32:36;;;;;;;9.13;3.55;;;;;;;;;;5008416;28;20413;-61
2023/03/29 06:35:03;;;;;;;10.93;4.25;;;;;;;;;;5007656;28;20053;-61
2023/03/29 06:37:31;;;;;;;13.40;4.30;;;;;;;;;;5009778;28;20042;-61
2023/03/29 06:39:58;;;;;;;9.98;4.57;;;;;;;;;;5009417;28;20042;-61
2023/03/29 06:42:24;;;;;;;6.82;3.92;;;;;;;;;;5010151;28;20143;-61
2023/03/29 06:44:51;;;;;;;7.88;5.50;;;;;;;;;;5008557;28;20481;-61
2023/03/29 06:47:17;;;;;;;15.40;6.72;;;;;;;;;;5027687;28;21979;-61
2023/03/29 06:49:43;;;;;;;9.50;5.75;;;;;;;;;;5010799;28;20046;-61
2023/03/29 06:52:10;;;;;;;11.30;5.03;;;;;;;;;;5011349;28;20516;-61
2023/03/29 06:54:37;;;;;;;14.10;5.88;;;;;;;;;;5009132;28;20045;-61
2023/03/29 06:57:04;;;;;;;7.60;3.85;;;;;;;;;;5006380;28;20069;-61
2023/03/29 06:59:30;;;;;;;10.27;3.33;;;;;;;;;;5038141;28;20172;-62
2023/03/29 07:01:56;;;;;;;9.10;4.40;;;;;;;;;;5006342;28;20049;-61
2023/03/29 07:04:23;;;;;;;8.85;4.25;;;;;;;;;;5019866;28;20053;-61
2023/03/29 07:07:00;;;;;;;8.48;6.65;;;;;;;;;;5027179;28;20030;-60
2023/03/29 07:09:28;;;;;;;7.95;4.05;;;;;;;;;;5012963;28;20045;-61
2023/03/29 07:11:54;;;;;;;7.28;3.53;;;;;;;;;;5008210;28;20504;-61
2023/03/29 07:14:20;;;;;;;8.02;4.07;;;;;;;;;;5010266;28;20048;-60
2023/03/29 07:16:48;;;;;;;8.32;3.58;;;;;;;;;;5000668;28;20058;-61
2023/03/29 07:19:14;;;;;;;11.13;4.75;;;;;;;;;;5011561;28;20032;-61
2023/03/29 07:21:40;;;;;;;15.93;4.35;;;;;;;;;;5012832;28;20086;-62
2023/03/29 07:24:07;;;;;;;13.40;4.60;;;;;;;;;;5015317;28;20084;-61
2023/03/29 07:26:33;;;;;;;17.77;5.55;;;;;;;;;;5013367;28;20194;-61
2023/03/29 07:29:00;;;;;;;16.80;5.20;;;;;;;;;;5015796;28;20042;-61
2023/03/29 07:31:28;;;;;;;14.25;4.82;;;;;;;;;;5006062;28;20049;-61
2023/03/29 07:33:54;;;;;;;11.05;4.55;;;;;;;;;;5015274;28;20042;-62
2023/03/29 07:36:21;;;;;;;11.13;5.10;;;;;;;;;;5016777;28;20050;-61
2023/03/29 07:38:47;;;;;;;10.65;4.10;;;;;;;;;;5017098;28;20435;-61
2023/03/29 07:41:13;;;;;;;13.32;4.55;;;;;;;;;;5015818;28;20049;-61
2023/03/29 07:43:40;;;;;;;17.10;5.60;;;;;;;;;;5015474;28;20127;-61
2023/03/29 07:46:08;;;;;;;26.17;6.82;;;;;;;;;;5016898;28;20076;-61
2023/03/29 07:48:35;;;;;;;9.25;3.95;;;;;;;;;;5015943;28;20618;-61
2023/03/29 07:51:02;;;;;;;13.88;5.07;;;;;;;;;;5015157;28;20523;-61
2023/03/29 07:53:28;;;;;;;7.95;3.72;;;;;;;;;;5015351;28;20057;-61
2023/03/29 07:55:54;;;;;;;12.85;3.65;;;;;;;;;;5015323;28;20077;-61
2023/03/29 07:58:20;;;;;;;8.27;3.42;;;;;;;;;;5031663;28;20049;-61
2023/03/29 08:00:47;;;;;;;10.88;2.97;;;;;;;;;;5015900;28;20551;-61
2023/03/29 08:03:14;;;;;;;12.65;4.72;;;;;;;;;;5013782;28;20038;-61
2023/03/29 08:05:41;;;;;;;10.82;3.15;;;;;;;;;;5012489;28;20092;-62
2023/03/29 08:08:08;;;;;;;5.80;2.70;;;;;;;;;;5015150;28;20045;-61
2023/03/29 08:10:35;;;;;;;11.30;3.45;;;;;;;;;;5014755;28;20049;-61
2023/03/29 08:13:03;;;;;;;8.55;2.90;;;;;;;;;;5015353;28;20627;-61
2023/03/29 08:15:29;;;;;;;7.55;3.33;;;;;;;;;;5014929;28;20049;-61
2023/03/29 08:17:56;;;;;;;5.30;2.70;;;;;;;;;;5013693;28;20054;-61
2023/03/29 08:20:22;;;;;;;6.82;2.80;;;;;;;;;;5015839;28;20049;-61
2023/03/29 08:22:48;;;;;;;7.75;3.72;;;;;;;;;;5043214;28;20463;-61
2023/03/29 08:25:15;;;;;;;8.63;3.80;;;;;;;;;;5016119;28;20060;-61
2023/03/29 08:27:42;;;;;;;6.63;3.17;;;;;;;;;;5008137;28;20049;-61
2023/03/29 08:30:08;;;;;;;11.50;3.33;;;;;;;;;;5014317;28;20175;-61
2023/03/29 08:32:35;;;;;;;9.38;3.40;;;;;;;;;;5015047;28;20548;-61
2023/03/29 08:35:03;;;;;;;4.05;2.95;;;;;;;;;;5013264;28;20042;-61
2023/03/29 08:37:29;;;;;;;6.82;3.00;;;;;;;;;;5013548;28;20092;-61
2023/03/29 08:39:56;;;;;;;8.80;3.95;;;;;;;;;;5014995;28;20149;-61
2023/03/29 08:42:40;;;;;;;7.22;3.40;;;;;;;;;;5027751;28;20050;-61
2023/03/29 08:45:16;;;;;;;9.80;2.92;;;;;;;;;;5015312;28;20038;-62
2023/03/29 08:47:49;;;;;;;6.13;3.25;;;;;;;;;;5011030;28;21095;-61
2023/03/29 08:50:15;;;;;;;10.73;3.47;;;;;;;;;;5013061;28;20582;-61
2023/03/29 08:53:01;;;;;;;8.32;2.85;;;;;;;;;;5012110;28;20448;-62
2023/03/29 08:55:30;;;;;;;10.48;3.70;;;;;;;;;;5012793;28;20053;-61
2023/03/29 08:57:57;;;;;;;8.35;2.70;;;;;;;;;;5012709;28;20046;-61
2023/03/29 09:00:34;;;;;;;8.57;3.15;;;;;;;;;;5013237;28;20030;-61
2023/03/29 09:03:01;;;;;;;11.75;5.05;;;;;;;;;;5011761;28;20515;-61
2023/03/29 09:05:34;;;;;;;8.20;3.33;;;;;;;;;;5013151;28;20540;-61
2023/03/29 09:08:00;;;;;;;12.15;4.38;;;;;;;;;;5012319;28;20592;-61
2023/03/29 09:10:38;;;;;;;6.30;3.00;;;;;;;;;;5005973;28;20046;-61
2023/03/29 09:13:04;;;;;;;10.95;4.40;;;;;;;;;;5010960;28;20520;-61
2023/03/29 09:15:34;;;;;;;8.07;3.38;;;;;;;;;;5012518;28;20045;-61
2023/03/29 09:18:12;;;;;;;8.15;2.97;;;;;;;;;;5010747;28;20664;-61
2023/03/29 09:20:43;;;;;;;13.30;2.92;;;;;;;;;;5011742;28;20077;-61
2023/03/29 09:23:21;;;;;;;8.35;3.20;;;;;;;;;;5013200;28;20193;-61
2023/03/29 09:25:53;;;;;;;5.38;3.63;;;;;;;;;;5013953;28;20050;-61
2023/03/29 09:28:23;;;;;;;10.40;3.30;;;;;;;;;;5012348;28;20544;-61
2023/03/29 09:31:01;;;;;;;8.23;2.72;;;;;;;;;;5013634;28;20038;-61
2023/03/29 09:33:46;;;;;;;5.70;3.00;;;;;;;;;;5013421;28;20053;-61
2023/03/29 09:36:24;;;;;;;11.75;3.97;;;;;;;;;;5012595;28;20470;-61
2023/03/29 09:38:53;;;;;;;8.00;3.55;;;;;;;;;;5012719;28;20037;-61
2023/03/29 09:41:25;;;;;;;5.88;2.22;;;;;;;;;;5014820;28;20050;-61
2023/03/29 09:43:52;;;;;;;5.22;2.45;;;;;;;;;;5012248;28;20117;-59
2023/03/29 09:46:22;;;;;;;6.80;2.67;;;;;;;;;;5043972;28;20128;-59
2023/03/29 09:48:49;;;;;;;3.85;2.10;;;;;;;;;;5042905;28;20038;-60
2023/03/29 09:51:16;;;;;;;5.90;2.60;;;;;;;;;;5013186;28;20042;-60
2023/03/29 09:53:42;;;;;;;4.38;2.30;;;;;;;;;;5029659;28;20054;-60
2023/03/29 09:56:09;;;;;;;5.13;3.05;;;;;;;;;;5011374;28;20030;-60
2023/03/29 09:58:36;;;;;;;3.70;1.98;;;;;;;;;;5011386;28;20046;-60
2023/03/29 10:01:04;;;;;;;3.05;2.42;;;;;;;;;;5012719;28;20095;-60
2023/03/29 10:03:31;;;;;;;3.92;2.03;;;;;;;;;;5013011;28;20631;-61
2023/03/29 10:05:59;;;;;;;3.88;2.28;;;;;;;;;;5013018;28;20046;-61
2023/03/29 10:08:29;;;;;;;4.60;1.85;;;;;;;;;;5013110;28;20191;-61
2023/03/29 10:10:58;;;;;;;5.60;2.60;;;;;;;;;;5014206;28;20042;-61
2023/03/29 10:13:29;;;;;;;10.07;2.60;;;;;;;;;;5013794;28;20062;-60
2023/03/29 10:16:00;;;;;;;6.15;2.83;;;;;;;;;;5014188;28;20061;-60
2023/03/29 10:18:28;;;;;;;3.58;1.90;;;;;;;;;;5015441;28;20065;-60
2023/03/29 10:20:58;;;;;;;7.55;2.55;;;;;;;;;;5017978;28;20786;-61
2023/03/29 10:23:29;;;;;;;8.77;2.85;;;;;;;;;;5016439;28;20591;-60
2023/03/29 10:25:55;;;;;;;10.35;2.90;;;;;;;;;;5016806;28;20978;-61
2023/03/29 10:28:21;;;;;;;4.97;2.53;;;;;;;;;;5017204;28;20323;-61
2023/03/29 10:30:52;;;;;;;4.18;2.22;;;;;;;;;;5032886;28;20038;-61
2023/03/29 10:33:20;;;;;;;4.03;2.42;;;;;;;;;;5015034;28;20108;-60
2023/03/29 10:35:47;;;;;;;3.47;2.05;;;;;;;;;;5015007;28;20170;-60
2023/03/29 10:38:16;;;;;;;4.93;2.28;;;;;;;;;;5016744;28;20137;-61
2023/03/29 10:40:49;;;;;;;4.28;2.83;;;;;;;;;;5031513;28;20147;-60
2023/03/29 10:43:54;;;;;;;4.10;2.00;;;;;;;;;;5017391;28;20085;-60
2023/03/29 10:46:22;;;;;;;3.67;1.88;;;;;;;;;;5009651;28;20129;-60
2023/03/29 10:48:50;;;;;;;3.58;2.10;;;;;;;;;;5009441;28;20079;-60
2023/03/29 10:51:17;;;;;;;5.28;2.00;;;;;;;;;;5013743;28;20117;-60
2023/03/29 10:53:43;;;;;;;3.42;2.28;;;;;;;;;;5014880;28;20065;-61
2023/03/29 10:56:12;;;;;;;4.25;2.22;;;;;;;;;;5016400;28;20097;-60
2023/03/29 10:58:39;;;;;;;5.18;1.75;;;;;;;;;;5013767;28;20111;-60
2023/03/29 11:01:05;;;;;;;3.33;2.45;;;;;;;;;;5016005;28;21015;-61
2023/03/29 11:03:50;;;;;;;3.13;2.42;;;;;;;;;;5014082;28;21205;-61
2023/03/29 11:06:23;;;;;;;4.68;1.95;;;;;;;;;;5015384;28;20046;-61
2023/03/29 11:08:58;;;;;;;7.40;2.00;;;;;;;;;;5015491;28;20076;-61
2023/03/29 11:11:46;;;;;;;2.63;1.60;;;;;;;;;;5014592;28;20030;-61
2023/03/29 11:14:19;;;;;;;5.63;2.10;;;;;;;;;;5016831;28;20636;-60
2023/03/29 11:16:56;;;;;;;2.92;1.45;;;;;;;;;;5013618;28;20164;-60
2023/03/29 11:19:26;;;;;;;4.72;1.52;;;;;;;;;;5016544;28;20052;-60
2023/03/29 11:22:01;;;;;;;5.45;2.78;;;;;;;;;;5016052;28;20048;-61
2023/03/29 11:24:33;;;;;;;5.53;2.40;;;;;;;;;;5008548;28;20465;-60
2023/03/29 11:26:59;;;;;;;4.72;2.70;;;;;;;;;;5008465;28;20428;-60
2023/03/29 11:29:40;;;;;;;5.82;2.35;;;;;;;;;;5016967;28;20045;-60
2023/03/29 11:32:20;;;;;;;4.75;2.63;;;;;;;;;;5010394;28;20054;-61
2023/03/29 11:35:02;;;;;;;3.28;2.00;;;;;;;;;;5046094;28;20096;-60
2023/03/29 11:37:45;;;;;;;3.47;2.00;;;;;;;;;;5031507;28;20038;-60
2023/03/29 11:40:14;;;;;;;6.25;2.67;;;;;;;;;;5014546;28;20089;-61
2023/03/29 11:42:42;;;;;;;4.50;2.28;;;;;;;;;;5015810;28;20129;-60
2023/03/29 11:45:12;;;;;;;4.65;2.15;;;;;;;;;;5012254;28;20128;-60
2023/03/29 11:47:40;;;;;;;4.70;2.10;;;;;;;;;;5045827;28;20050;-60
2023/03/29 11:50:14;;;;;;;5.30;2.20;;;;;;;;;;5013931;28;20046;-60
2023/03/29 11:52:43;;;;;;;6.43;2.30;;;;;;;;;;5016192;28;20045;-60
2023/03/29 11:55:12;;;;;;;4.72;2.97;;;;;;;;;;5013801;28;20045;-61
2023/03/29 11:57:44;;;;;;;5.28;2.10;;;;;;;;;;5012622;28;20104;-61
2023/03/29 12:00:31;;;;;;;3.10;1.70;;;;;;;;;;5007428;28;20064;-60
2023/03/29 12:03:21;;;;;;;3.92;2.00;;;;;;;;;;5012308;28;20558;-60
2023/03/29 12:05:53;;;;;;;4.35;2.17;;;;;;;;;;5014098;28;20050;-60
2023/03/29 12:08:19;;;;;;;;;;;;;;;;;;5014294;28;20046;-60
2023/03/29 12:10:49;;;;;;;3.92;1.85;;;;;;;;;;5015076;28;20329;-61
2023/03/29 12:13:28;;;;;;;4.25;2.33;;;;;;;;;;5015328;28;20143;-60
2023/03/29 12:16:06;;;;;;;2.45;1.90;;;;;;;;;;5014003;28;20069;-60
2023/03/29 12:18:44;;;;;;;6.07;2.30;;;;;;;;;;5015147;28;20085;-60
2023/03/29 12:21:19;;;;;;;4.22;2.75;;;;;;;;;;5013865;28;20124;-60
2023/03/29 12:23:46;;;;;;;3.53;2.22;;;;;;;;;;5015539;28;20046;-60
2023/03/29 12:26:32;;;;;;;4.85;2.65;;;;;;;;;;5013762;28;20496;-59
2023/03/29 12:29:10;;;;;;;3.55;2.33;;;;;;;;;;5013698;28;20052;-59
2023/03/29 12:31:42;;;;;;;3.15;2.03;;;;;;;;;;5013885;28;20045;-59
2023/03/29 12:34:29;;;;;;;2.85;1.73;;;;;;;;;;5012373;28;20573;-60
2023/03/29 12:37:03;;;;;;;2.97;1.90;;;;;;;;;;5012939;28;20137;-60
2023/03/29 12:39:30;;;;;;;5.30;2.20;;;;;;;;;;5013479;28;20034;-60
2023/03/29 12:42:16;;;;;;;3.80;2.10;;;;;;;;;;5015726;28;20058;-60
2023/03/29 12:44:58;;;;;;;3.33;2.33;;;;;;;;;;5011231;28;20045;-60
2023/03/29 12:47:28;;;;;;;4.20;2.20;;;;;;;;;;5011997;28;20080;-60
2023/03/29 12:49:56;;;;;;;5.70;2.38;;;;;;;;;;5013151;28;20042;-60
2023/03/29 12:52:32;;;;;;;2.53;1.88;;;;;;;;;;5011867;28;20630;-60
2023/03/29 12:55:00;;;;;;;4.63;2.35;;;;;;;;;;5013514;28;20453;-60
2023/03/29 12:57:57;;;;;;;4.53;2.28;;;;;;;;;;5013824;28;20088;-60
2023/03/29 13:00:43;;;;;;;5.25;1.85;;;;;;;;;;5019279;28;20056;-60
2023/03/29 13:03:30;;;;;;;5.20;2.15;;;;;;;;;;5013940;28;20479;-60
2023/03/29 13:06:01;;;;;;;4.35;2.00;;;;;;;;;;5011028;28;20050;-60
2023/03/29 13:08:32;;;;;;;3.35;1.85;;;;;;;;;;5015023;28;20042;-60
2023/03/29 13:10:59;;;;;;;4.72;2.00;;;;;;;;;;5015029;28;20097;-60
2023/03/29 13:13:30;;;;;;;3.25;1.73;;;;;;;;;;5012121;28;20074;-60
2023/03/29 13:16:07;;;;;;;2.40;1.50;;;;;;;;;;5013461;28;20483;-60
2023/03/29 13:18:52;;;;;;;4.05;1.83;;;;;;;;;;5011612;28;20521;-60
2023/03/29 13:21:30;;;;;;;2.92;1.88;;;;;;;;;;5010547;28;20058;-60
2023/03/29 13:24:15;;;;;;;3.53;2.25;;;;;;;;;;5012741;28;20049;-60
2023/03/29 13:27:00;;;;;;;6.85;2.58;;;;;;;;;;5045244;28;20545;-60
2023/03/29 13:29:37;;;;;;;3.10;2.03;;;;;;;;;;5013561;28;20520;-60
2023/03/29 13:32:21;;;;;;;8.00;2.58;;;;;;;;;;5012368;28;20046;-60
2023/03/29 13:35:06;;;;;;;7.38;1.90;;;;;;;;;;5010553;28;20509;-60
2023/03/29 13:37:55;;;;;;;3.20;1.55;;;;;;;;;;5010990;28;20053;-60
2023/03/29 13:40:31;;;;;;;2.92;1.58;;;;;;;;;;5014060;28;20513;-60
2023/03/29 13:43:23;;;;;;;3.45;2.20;;;;;;;;;;5013107;28;20503;-60
2023/03/29 13:45:49;;;;;;;;;;;;;;;;;;5011046;28;20053;-60
2023/03/29 13:48:26;;;;;;;3.53;1.95;;;;;;;;;;5012790;28;19928;-60
2023/03/29 13:50:56;;;;;;;4.28;1.50;;;;;;;;;;5010849;28;20048;-60
2023/03/29 13:53:28;;;;;;;3.80;1.70;;;;;;;;;;5014405;28;20078;-60
2023/03/29 13:55:54;;;;;;;3.20;1.60;;;;;;;;;;5014576;28;20041;-60
2023/03/29 13:58:23;;;;;;;5.95;2.10;;;;;;;;;;5013473;28;20049;-60
2023/03/29 14:00:52;;;;;;;2.00;1.80;;;;;;;;;;5013076;28;20046;-60
2023/03/29 14:03:25;;;;;;;3.88;1.73;;;;;;;;;;5013778;28;20069;-60
2023/03/29 14:05:54;;;;;;;2.05;1.20;;;;;;;;;;5011460;28;20125;-60
2023/03/29 14:08:30;;;;;;;6.28;1.70;;;;;;;;;;5014500;28;20042;-60
2023/03/29 14:11:00;;;;;;;3.13;1.40;;;;;;;;;;5010463;28;20053;-60
2023/03/29 14:13:26;;;;;;;4.85;2.75;;;;;;;;;;5013326;28;20496;-60
2023/03/29 14:16:01;;;;;;;7.25;2.95;;;;;;;;;;5011239;28;20042;-60
2023/03/29 14:18:27;;;;;;;6.55;2.10;;;;;;;;;;5014528;28;20064;-60
2023/03/29 14:20:54;;;;;;;4.03;2.13;;;;;;;;;;5012993;28;20143;-60
2023/03/29 14:23:25;;;;;;;7.82;2.33;;;;;;;;;;5012614;28;20110;-60
2023/03/29 14:25:51;;;;;;;4.50;1.98;;;;;;;;;;5014015;28;20113;-60
2023/03/29 14:28:19;;;;;;;3.42;1.65;;;;;;;;;;5025906;28;20527;-60
2023/03/29 14:30:46;;;;;;;5.32;1.70;;;;;;;;;;5012868;28;20918;-60
2023/03/29 14:33:13;;;;;;;3.75;1.80;;;;;;;;;;5010208;28;20049;-60
2023/03/29 14:35:40;;;;;;;10.05;2.13;;;;;;;;;;5012565;28;20046;-60
2023/03/29 14:38:06;;;;;;;6.30;1.65;;;;;;;;;;5012642;28;20517;-60
2023/03/29 14:40:33;;;;;;;3.38;1.85;;;;;;;;;;5026996;28;20050;-60
2023/03/29 14:43:04;;;;;;;3.28;1.30;;;;;;;;;;5011971;28;20637;-60
2023/03/29 14:45:31;;;;;;;4.47;2.15;;;;;;;;;;5010875;28;20042;-60
2023/03/29 14:47:57;;;;;;;3.97;1.90;;;;;;;;;;5015008;28;20042;-60
2023/03/29 14:50:27;;;;;;;2.45;1.50;;;;;;;;;;5009814;28;20046;-60
2023/03/29 14:52:55;;;;;;;5.15;2.75;;;;;;;;;;5012807;28;20096;-60
2023/03/29 14:55:22;;;;;;;6.40;1.92;;;;;;;;;;5007603;28;20748;-60
2023/03/29 14:57:49;;;;;;;6.32;2.17;;;;;;;;;;5013020;28;20046;-60
2023/03/29 15:00:24;;;;;;;4.03;1.65;;;;;;;;;;5015643;28;20042;-60